createdAt,value
2022-10-15T01:33:57.607Z,100935.94
2022-10-15T01:36:41.154Z,100936.84
2022-10-15T01:39:26.436Z,100938.66
2022-10-15T01:42:05.507Z,100937.25
2022-10-15T01:44:45.688Z,100946.94
2022-10-15T01:47:50.077Z,100955.00
2022-10-15T01:50:25.291Z,100957.47
2022-10-15T01:52:59.585Z,100956.34
2022-10-15T01:55:32.724Z,100960.63
2022-10-15T01:58:06.774Z,100965.53
2022-10-15T02:00:38.065Z,100976.03
2022-10-15T02:03:08.678Z,100979.09
2022-10-15T02:05:48.135Z,100991.22
2022-10-15T02:09:05.795Z,100996.91
2022-10-15T02:12:06.310Z,100991.84
2022-10-15T02:14:58.724Z,100995.16
2022-10-15T02:18:02.987Z,101004.56
2022-10-15T02:21:13.586Z,101016.50
2022-10-15T02:23:56.033Z,101020.47
2022-10-15T02:26:30.772Z,101026.81
2022-10-15T02:29:03.837Z,101031.41
2022-10-15T02:31:37.139Z,101036.53
2022-10-15T02:34:12.340Z,101033.22
2022-10-15T02:36:45.248Z,101041.31
2022-10-15T02:39:21.363Z,101039.16
2022-10-15T02:41:53.319Z,101039.69
2022-10-15T02:44:24.868Z,101037.63
2022-10-15T02:46:55.848Z,101032.84
2022-10-15T02:49:27.213Z,101025.06
2022-10-15T02:51:58.583Z,101022.50
2022-10-15T02:54:29.098Z,101025.91
2022-10-15T02:57:00.086Z,101030.97
2022-10-15T02:59:30.998Z,101024.63
2022-10-15T03:02:02.889Z,101026.78
2022-10-15T03:04:35.086Z,101019.50
2022-10-15T03:07:06.266Z,101025.84
2022-10-15T03:09:37.046Z,101031.84
2022-10-15T03:12:09.490Z,101031.13
2022-10-15T03:14:40.688Z,101029.09
2022-10-15T03:17:11.504Z,101024.41
2022-10-15T03:19:43.116Z,101031.06
2022-10-15T03:22:14.042Z,101029.50
2022-10-15T03:24:52.097Z,101028.66
2022-10-15T03:27:28.055Z,101034.50
2022-10-15T03:30:00.595Z,101033.88
2022-10-15T03:32:36.252Z,101039.09
2022-10-15T03:35:10.032Z,101036.31
2022-10-15T03:37:40.848Z,101042.03
2022-10-15T03:40:14.541Z,101049.88
2022-10-15T03:42:47.473Z,101050.50
2022-10-15T03:45:18.454Z,101035.53
2022-10-15T03:47:53.609Z,101033.56
2022-10-15T03:50:24.866Z,101036.00
2022-10-15T03:52:56.127Z,101030.00
2022-10-15T03:55:27.321Z,101036.81
2022-10-15T03:57:58.219Z,101026.97
2022-10-15T04:00:29.364Z,101027.94
2022-10-15T04:03:03.597Z,101027.09
2022-10-15T04:05:34.467Z,101028.72
2022-10-15T04:08:09.802Z,101025.34
2022-10-15T04:10:44.137Z,101018.81
2022-10-15T04:13:14.965Z,101015.03
2022-10-15T04:15:46.656Z,101017.41
2022-10-15T04:18:18.297Z,101017.56
2022-10-15T04:20:49.123Z,101021.97
2022-10-15T04:23:26.519Z,101015.44
2022-10-15T04:26:20.591Z,101012.69
2022-10-15T04:28:52.151Z,101012.06
2022-10-15T04:31:24.845Z,101005.19
2022-10-15T04:33:56.893Z,101000.19
2022-10-15T04:36:27.757Z,100994.16
2022-10-15T04:39:08.667Z,100978.63
2022-10-15T04:41:45.195Z,100985.69
2022-10-15T04:44:24.516Z,100982.00
2022-10-15T04:46:59.673Z,100973.03
2022-10-15T04:49:47.051Z,100975.28
2022-10-15T04:52:45.193Z,100965.44
2022-10-15T04:55:17.053Z,100963.19
2022-10-15T04:57:47.948Z,100966.91
2022-10-15T05:00:23.861Z,100959.25
2022-10-15T05:06:13.938Z,100959.44
2022-10-15T05:08:46.095Z,100949.16
2022-10-15T05:11:26.345Z,100944.94
2022-10-15T05:14:00.335Z,100941.19
2022-10-15T05:16:36.594Z,100938.28
2022-10-15T05:19:11.917Z,100931.69
2022-10-15T05:21:44.983Z,100922.75
2022-10-15T05:24:25.825Z,100921.47
2022-10-15T05:27:28.890Z,100921.03
2022-10-15T05:29:59.895Z,100915.19
2022-10-15T05:32:57.686Z,100913.44
2022-10-15T05:35:29.060Z,100906.81
2022-10-15T05:38:04.685Z,100902.38
2022-10-15T05:40:35.466Z,100904.03
2022-10-15T05:43:21.590Z,100900.31
2022-10-15T05:45:56.402Z,100911.38
2022-10-15T05:48:28.917Z,100908.47
2022-10-15T05:51:11.849Z,100903.59
2022-10-15T05:53:43.302Z,100902.94
2022-10-15T05:56:15.109Z,100895.34
2022-10-15T05:58:46.032Z,100890.94
2022-10-15T06:01:17.522Z,100880.53
2022-10-15T06:03:55.235Z,100888.81
2022-10-15T06:06:30.084Z,100879.28
2022-10-15T06:09:02.573Z,100874.09
2022-10-15T06:11:33.889Z,100883.19
2022-10-15T06:14:04.793Z,100878.28
2022-10-15T06:16:36.090Z,100875.84
2022-10-15T06:19:06.876Z,100870.50
2022-10-15T06:21:37.676Z,100867.09
2022-10-15T06:24:10.057Z,100867.91
2022-10-15T06:26:41.387Z,100858.16
2022-10-15T06:29:13.145Z,100849.84
2022-10-15T06:31:43.857Z,100846.47
2022-10-15T06:34:14.563Z,100853.75
2022-10-15T06:36:45.492Z,100842.44
2022-10-15T06:39:16.476Z,100845.16
2022-10-15T06:41:48.201Z,100840.16
2022-10-15T06:44:18.936Z,100842.72
2022-10-15T06:46:49.631Z,100840.44
2022-10-15T06:49:20.314Z,100843.88
2022-10-15T06:51:51.004Z,100840.63
2022-10-15T06:54:21.700Z,100835.41
2022-10-15T06:56:52.252Z,100837.84
2022-10-15T06:59:25.982Z,100841.25
2022-10-15T07:01:57.939Z,100837.53
2022-10-15T07:04:28.782Z,100831.66
2022-10-15T07:06:59.968Z,100830.69
2022-10-15T07:09:31.633Z,100827.69
2022-10-15T07:12:02.360Z,100828.72
2022-10-15T07:14:33.449Z,100825.72
2022-10-15T07:17:05.108Z,100821.75
2022-10-15T07:19:35.878Z,100824.22
2022-10-15T07:22:06.744Z,100815.59
2022-10-15T07:24:37.520Z,100827.28
2022-10-15T07:27:18.681Z,100811.56
2022-10-15T07:29:50.027Z,100818.34
2022-10-15T07:32:21.131Z,100816.31
2022-10-15T07:34:52.398Z,100822.19
2022-10-15T07:37:23.171Z,100827.66
2022-10-15T07:39:53.995Z,100823.03
2022-10-15T07:42:24.715Z,100831.41
2022-10-15T07:44:55.528Z,100817.78
2022-10-15T07:47:26.574Z,100827.59
2022-10-15T07:49:57.865Z,100830.34
2022-10-15T07:52:28.492Z,100825.59
2022-10-15T07:54:59.211Z,100826.91
2022-10-15T07:57:30.058Z,100828.56
2022-10-15T08:00:00.799Z,100836.38
2022-10-15T08:02:31.617Z,100830.81
2022-10-15T08:05:02.365Z,100835.94
2022-10-15T08:07:33.315Z,100839.94
2022-10-15T08:10:05.127Z,100834.75
2022-10-15T08:12:35.948Z,100836.84
2022-10-15T08:15:07.336Z,100844.59
2022-10-15T08:17:38.221Z,100843.19
2022-10-15T08:20:09.506Z,100840.38
2022-10-15T08:22:40.174Z,100834.94
2022-10-15T08:25:11.519Z,100838.94
2022-10-15T08:27:41.824Z,100838.41
2022-10-15T08:30:13.173Z,100836.00
2022-10-15T08:32:43.574Z,100846.44
2022-10-15T08:35:14.433Z,100843.69
2022-10-15T08:37:45.091Z,100840.22
2022-10-15T08:40:17.252Z,100838.78
2022-10-15T08:42:49.522Z,100839.63
2022-10-15T08:45:26.777Z,100839.03
2022-10-15T08:48:07.620Z,100840.25
2022-10-15T08:50:47.450Z,100838.41
2022-10-15T08:53:23.429Z,100836.69
2022-10-15T08:56:07.053Z,100836.28
2022-10-15T09:01:58.475Z,100834.44
2022-10-15T09:04:29.129Z,100850.41
2022-10-15T09:07:18.221Z,100831.19
2022-10-15T09:09:57.390Z,100846.00
2022-10-15T09:12:49.141Z,100851.19
2022-10-15T09:15:27.067Z,100850.41
2022-10-15T09:17:58.911Z,100855.31
2022-10-15T09:20:39.059Z,100856.34
2022-10-15T09:23:18.461Z,100848.69
2022-10-15T09:26:02.641Z,100850.31
2022-10-15T09:28:50.004Z,100850.56
2022-10-15T09:31:31.013Z,100841.25
2022-10-15T09:34:14.821Z,100855.16
2022-10-15T09:36:59.753Z,100846.78
2022-10-15T09:39:57.482Z,100847.06
2022-10-15T09:42:34.533Z,100857.25
2022-10-15T09:45:13.229Z,100867.69
2022-10-15T09:47:45.871Z,100868.63
2022-10-15T09:53:07.951Z,100871.19
2022-10-15T09:55:38.856Z,100879.50
2022-10-15T09:58:21.513Z,100884.19
2022-10-15T10:01:01.201Z,100883.66
2022-10-15T10:03:39.834Z,100886.44
2022-10-15T10:06:12.745Z,100879.59
2022-10-15T10:09:02.084Z,100878.97
2022-10-15T10:11:51.540Z,100877.59
2022-10-15T10:14:46.043Z,100883.69
2022-10-15T10:17:26.322Z,100877.75
2022-10-15T10:20:23.220Z,100879.81
2022-10-15T10:22:56.627Z,100883.28
2022-10-15T10:25:31.330Z,100887.28
2022-10-15T10:28:17.164Z,100891.66
2022-10-15T10:31:06.455Z,100892.44
2022-10-15T10:33:42.745Z,100897.97
2022-10-15T10:36:33.409Z,100894.00
2022-10-15T10:39:08.711Z,100897.69
2022-10-15T10:41:54.495Z,100897.88
2022-10-15T10:44:33.349Z,100906.47
2022-10-15T10:47:22.926Z,100910.53
2022-10-15T10:50:00.256Z,100911.44
2022-10-15T10:52:34.253Z,100914.66
2022-10-15T10:55:22.022Z,100919.25
2022-10-15T10:57:57.131Z,100913.56
2022-10-15T11:00:52.399Z,100915.91
2022-10-15T11:03:40.568Z,100920.91
2022-10-15T11:06:26.835Z,100915.72
2022-10-15T11:09:26.989Z,100921.09
2022-10-15T11:12:24.176Z,100924.97
2022-10-15T11:15:27.003Z,100925.28
2022-10-15T11:18:18.803Z,100927.13
2022-10-15T11:21:08.218Z,100924.13
2022-10-15T11:24:03.367Z,100931.25
2022-10-15T11:27:11.273Z,100930.28
2022-10-15T11:29:59.606Z,100932.44
2022-10-15T11:33:13.349Z,100924.41
2022-10-15T11:36:05.802Z,100925.44
2022-10-15T11:38:59.962Z,100928.13
2022-10-15T11:41:43.384Z,100929.34
2022-10-15T11:44:47.578Z,100926.31
2022-10-15T11:47:21.225Z,100934.00
2022-10-15T11:49:51.878Z,100940.69
2022-10-15T11:53:02.546Z,100934.44
2022-10-15T11:55:53.384Z,100938.47
2022-10-15T11:58:51.191Z,100940.75
2022-10-15T12:02:01.397Z,100933.44
2022-10-15T12:04:59.761Z,100940.81
2022-10-15T12:07:41.743Z,100940.16
2022-10-15T12:10:38.324Z,100943.94
2022-10-15T12:13:13.859Z,100946.09
2022-10-15T12:16:09.075Z,100943.34
2022-10-15T12:19:00.837Z,100942.31
2022-10-15T12:21:33.949Z,100945.59
2022-10-15T12:24:06.211Z,100953.28
2022-10-15T12:26:38.300Z,100958.31
2022-10-15T12:29:24.140Z,100961.56
2022-10-15T12:32:01.233Z,100962.38
2022-10-15T12:34:42.606Z,100968.41
2022-10-15T12:37:21.786Z,100968.06
2022-10-15T12:40:00.146Z,100978.56
2022-10-15T12:46:00.540Z,100995.72
2022-10-15T12:48:37.209Z,100984.78
2022-10-15T12:51:20.545Z,100988.34
2022-10-15T12:53:52.843Z,100978.44
2022-10-15T12:56:43.427Z,100986.88
2022-10-15T12:59:34.562Z,100986.22
2022-10-15T13:02:05.815Z,100987.91
2022-10-15T13:04:42.218Z,100992.50
2022-10-15T13:07:17.896Z,100997.69
2022-10-15T13:09:48.983Z,100998.63
2022-10-15T13:12:28.428Z,101006.44
2022-10-15T13:15:06.997Z,101002.16
2022-10-15T13:17:42.196Z,101011.28
2022-10-15T13:20:46.536Z,101013.94
2022-10-15T13:23:31.846Z,101006.00
2022-10-15T13:26:16.908Z,101012.88
2022-10-15T13:28:48.815Z,101018.13
2022-10-15T13:31:34.458Z,101017.13
2022-10-15T13:34:30.238Z,101032.59
2022-10-15T13:37:03.756Z,101034.06
2022-10-15T13:39:38.812Z,101048.22
2022-10-15T13:42:19.457Z,101049.47
2022-10-15T13:45:03.913Z,101052.34
2022-10-15T13:47:37.116Z,101056.66
2022-10-15T13:50:27.804Z,101064.09
2022-10-15T13:53:24.709Z,101067.28
2022-10-15T13:55:59.531Z,101072.22
2022-10-15T13:58:32.072Z,101075.34
2022-10-15T14:01:11.858Z,101076.19
2022-10-15T14:03:58.961Z,101081.09
2022-10-15T14:06:37.007Z,101078.94
2022-10-15T14:09:31.720Z,101087.19
2022-10-15T14:12:03.755Z,101091.59
2022-10-15T14:14:49.411Z,101085.47
2022-10-15T14:17:20.173Z,101096.78
2022-10-15T14:20:25.679Z,101098.72
2022-10-15T14:22:54.378Z,101097.91
2022-10-15T14:25:29.241Z,101103.94
2022-10-15T14:27:59.988Z,101103.94
2022-10-15T14:30:35.646Z,101107.00
2022-10-15T14:33:07.143Z,101107.78
2022-10-15T14:35:39.883Z,101096.25
2022-10-15T14:38:14.768Z,101088.84
2022-10-15T14:41:06.475Z,101088.22
2022-10-15T14:43:40.792Z,101092.69
2022-10-15T14:49:00.798Z,101102.59
2022-10-15T14:51:32.203Z,101102.88
2022-10-15T14:54:03.567Z,101102.09
2022-10-15T14:56:35.857Z,101101.47
2022-10-15T14:59:07.134Z,101101.16
2022-10-15T15:01:38.331Z,101091.00
2022-10-15T15:04:09.181Z,101094.34
2022-10-15T15:06:40.662Z,101099.84
2022-10-15T15:09:11.819Z,101099.25
2022-10-15T15:11:42.737Z,101108.97
2022-10-15T15:14:29.836Z,101111.00
2022-10-15T15:17:00.537Z,101113.75
2022-10-15T15:19:31.152Z,101105.88
2022-10-15T15:22:01.869Z,101106.31
2022-10-15T15:24:32.439Z,101099.97
2022-10-15T15:27:03.204Z,101108.25
2022-10-15T15:29:34.128Z,101105.50
2022-10-15T15:32:04.876Z,101111.63
2022-10-15T15:34:35.985Z,101111.84
2022-10-15T15:37:18.855Z,101114.38
2022-10-15T15:39:49.774Z,101118.84
2022-10-15T15:42:25.900Z,101115.47
2022-10-15T15:44:57.123Z,101100.44
2022-10-15T15:47:28.026Z,101106.47
2022-10-15T15:49:58.859Z,101106.78
2022-10-15T15:52:31.321Z,101099.31
2022-10-15T15:55:04.970Z,101098.00
2022-10-15T15:57:35.899Z,101092.19
2022-10-15T16:00:11.847Z,101096.66
2022-10-15T16:02:43.289Z,101093.63
2022-10-15T16:05:17.199Z,101087.50
2022-10-15T16:07:49.044Z,101088.31
2022-10-15T16:10:20.486Z,101084.22
2022-10-15T16:12:50.914Z,101081.16
2022-10-15T16:15:21.412Z,101084.22
2022-10-15T16:17:52.212Z,101079.53
2022-10-15T16:20:23.107Z,101073.75
2022-10-15T16:23:11.293Z,101072.19
2022-10-15T16:25:41.716Z,101073.28
2022-10-15T16:28:12.113Z,101072.19
2022-10-15T16:30:42.425Z,101078.28
2022-10-15T16:33:12.802Z,101074.41
2022-10-15T16:35:43.460Z,101076.84
2022-10-15T16:38:13.723Z,101070.53
2022-10-15T16:40:44.006Z,101075.31
2022-10-15T16:43:14.430Z,101060.97
2022-10-15T16:45:44.832Z,101063.78
2022-10-15T16:48:15.156Z,101056.13
2022-10-15T16:50:45.598Z,101063.19
2022-10-15T16:53:15.877Z,101067.66
2022-10-15T16:55:46.202Z,101068.09
2022-10-15T16:58:16.509Z,101065.44
2022-10-15T17:00:46.779Z,101064.31
2022-10-15T17:03:17.097Z,101066.22
2022-10-15T17:05:47.437Z,101066.47
2022-10-15T17:08:19.911Z,101061.69
2022-10-15T17:10:51.905Z,101061.78
2022-10-15T17:13:23.025Z,101055.22
2022-10-15T17:15:59.139Z,101051.97
2022-10-15T17:18:31.612Z,101048.31
2022-10-15T17:21:01.823Z,101038.69
2022-10-15T17:23:33.364Z,101040.13
2022-10-15T17:26:07.857Z,101033.81
2022-10-15T17:28:38.301Z,101030.84
2022-10-15T17:31:10.074Z,101025.84
2022-10-15T17:33:41.289Z,101032.78
2022-10-15T17:36:15.953Z,101030.84
2022-10-15T17:38:46.506Z,101029.72
2022-10-15T17:41:18.614Z,101023.69
2022-10-15T17:43:50.786Z,101025.44
2022-10-15T17:46:22.272Z,101026.38
2022-10-15T17:48:52.921Z,101031.34
2022-10-15T17:51:26.322Z,101023.81
2022-10-15T17:54:00.559Z,101029.13
2022-10-15T17:56:32.601Z,101024.72
2022-10-15T17:59:04.142Z,101021.97
2022-10-15T18:04:26.990Z,101023.00
2022-10-15T18:06:57.217Z,101020.94
2022-10-15T18:09:28.579Z,101019.03
2022-10-15T18:12:01.323Z,101020.53
2022-10-15T18:14:34.321Z,101011.03
2022-10-15T18:17:04.844Z,101007.47
2022-10-15T18:19:35.387Z,101014.09
2022-10-15T18:22:05.751Z,101008.00
2022-10-15T18:24:36.012Z,101012.41
2022-10-15T18:27:07.571Z,101001.66
2022-10-15T18:29:38.863Z,101007.94
2022-10-15T18:32:09.322Z,101003.22
2022-10-15T18:34:39.553Z,101008.81
2022-10-15T18:37:09.976Z,101003.31
2022-10-15T18:39:40.196Z,101007.09
2022-10-15T18:42:10.326Z,101005.47
2022-10-15T18:44:40.407Z,101005.25
2022-10-15T18:47:10.859Z,101003.22
2022-10-15T18:49:46.044Z,101004.66
2022-10-15T18:52:28.116Z,101010.16
2022-10-15T18:55:06.691Z,101004.44
2022-10-15T18:57:37.543Z,100996.75
2022-10-15T19:00:08.212Z,100994.44
2022-10-15T19:02:38.667Z,100998.63
2022-10-15T19:05:08.934Z,100996.44
2022-10-15T19:07:39.403Z,100989.03
2022-10-15T19:10:09.765Z,100990.13
2022-10-15T19:12:40.208Z,100987.38
2022-10-15T19:15:10.868Z,100997.28
2022-10-15T19:17:41.335Z,100987.63
2022-10-15T19:20:11.956Z,100987.66
2022-10-15T19:22:42.568Z,100992.53
2022-10-15T19:25:12.838Z,100994.59
2022-10-15T19:27:44.242Z,100989.63
2022-10-15T19:30:14.865Z,100996.16
2022-10-15T19:32:46.921Z,100991.34
2022-10-15T19:35:17.259Z,100992.97
2022-10-15T19:37:47.557Z,100986.34
2022-10-15T19:40:17.907Z,100984.41
2022-10-15T19:42:48.290Z,100992.38
2022-10-15T19:45:18.706Z,100994.53
2022-10-15T19:47:49.660Z,100981.66
2022-10-15T19:50:20.056Z,100984.19
2022-10-15T19:52:50.463Z,100986.63
2022-10-15T19:55:24.252Z,100985.22
2022-10-15T19:57:57.273Z,100977.06
2022-10-15T20:00:27.928Z,100973.38
2022-10-15T20:02:58.380Z,100971.16
2022-10-15T20:05:28.707Z,100972.16
2022-10-15T20:07:58.981Z,100967.16
2022-10-15T20:10:29.203Z,100970.94
2022-10-15T20:12:59.467Z,100977.06
2022-10-15T20:15:29.822Z,100972.16
2022-10-15T20:18:00.216Z,100976.25
2022-10-15T20:20:30.583Z,100977.88
2022-10-15T20:23:00.935Z,100971.56
2022-10-15T20:25:31.232Z,100977.38
2022-10-15T20:28:01.743Z,100981.53
2022-10-15T20:30:32.008Z,100982.56
2022-10-15T20:33:02.359Z,100988.06
2022-10-15T20:35:35.038Z,100983.16
2022-10-15T20:38:05.931Z,100985.72
2022-10-15T20:40:37.502Z,100987.25
2022-10-15T20:43:07.752Z,100995.59
2022-10-15T20:45:43.700Z,100992.00
2022-10-15T20:48:21.769Z,100993.88
2022-10-15T20:50:52.564Z,100997.03
2022-10-15T20:53:24.760Z,100995.59
2022-10-15T20:55:55.301Z,100989.66
2022-10-15T20:58:25.687Z,100984.38
2022-10-15T21:00:56.023Z,100979.69
2022-10-15T21:03:26.298Z,100980.06
2022-10-15T21:05:56.807Z,100982.81
2022-10-15T21:08:27.386Z,100985.41
2022-10-15T21:11:03.952Z,100977.31
2022-10-15T21:13:34.325Z,100988.25
2022-10-15T21:16:05.729Z,100988.34
2022-10-15T21:18:37.964Z,100984.97
2022-10-15T21:21:26.650Z,100981.41
2022-10-15T21:23:57.210Z,100977.00
2022-10-15T21:26:27.978Z,100975.91
2022-10-15T21:28:58.756Z,100975.09
2022-10-15T21:31:29.961Z,100975.16
2022-10-15T21:34:00.292Z,100978.97
2022-10-15T21:36:31.396Z,100983.56
2022-10-15T21:39:02.864Z,100974.06
2022-10-15T21:41:34.512Z,100977.84
2022-10-15T21:44:05.373Z,100973.47
2022-10-15T21:46:36.152Z,100981.72
2022-10-15T21:49:06.731Z,100982.75
2022-10-15T21:51:37.806Z,100983.94
2022-10-15T21:54:09.239Z,100978.44
2022-10-15T21:56:39.914Z,100982.31
2022-10-15T21:59:10.495Z,100991.09
2022-10-15T22:01:41.148Z,100995.16
2022-10-15T22:04:13.141Z,101007.00
2022-10-15T22:06:43.591Z,101000.44
2022-10-15T22:09:14.310Z,101011.66
2022-10-15T22:11:44.997Z,101007.66
2022-10-15T22:14:16.255Z,101012.88
2022-10-15T22:16:46.581Z,101018.41
2022-10-15T22:19:18.749Z,101014.72
2022-10-15T22:21:49.058Z,101015.91
2022-10-15T22:24:20.610Z,101018.06
2022-10-15T22:26:52.255Z,101013.16
2022-10-15T22:29:33.007Z,101011.53
2022-10-15T22:32:05.717Z,101019.72
2022-10-15T22:34:35.983Z,101018.41
2022-10-15T22:37:06.402Z,101024.69
2022-10-15T22:39:36.893Z,101014.28
2022-10-15T22:42:08.555Z,101028.28
2022-10-15T22:44:38.879Z,101030.19
2022-10-15T22:47:09.338Z,101035.72
2022-10-15T22:49:39.557Z,101031.69
2022-10-15T22:52:09.947Z,101045.59
2022-10-15T22:54:40.296Z,101043.38
2022-10-15T22:57:10.645Z,101048.34
2022-10-15T22:59:41.129Z,101046.50
2022-10-15T23:02:11.573Z,101053.13
2022-10-15T23:04:41.878Z,101064.44
2022-10-15T23:07:12.271Z,101058.63
2022-10-15T23:09:42.801Z,101061.44
2022-10-15T23:12:13.617Z,101063.06
2022-10-15T23:14:44.208Z,101068.19
2022-10-15T23:17:14.525Z,101069.09
2022-10-15T23:19:44.915Z,101077.16
2022-10-15T23:22:15.289Z,101077.16
2022-10-15T23:24:45.638Z,101077.66
2022-10-15T23:27:15.967Z,101088.09
2022-10-15T23:29:48.231Z,101079.81
2022-10-15T23:32:23.801Z,101090.06
2022-10-15T23:34:54.108Z,101090.91
2022-10-15T23:37:24.753Z,101086.72
2022-10-15T23:39:56.591Z,101096.41
2022-10-15T23:42:27.057Z,101094.19
2022-10-15T23:44:57.417Z,101095.22
2022-10-15T23:47:28.147Z,101103.03
2022-10-15T23:49:58.794Z,101105.78
2022-10-15T23:52:29.508Z,101111.50
2022-10-15T23:54:59.715Z,101107.94
2022-10-15T23:57:29.934Z,101116.78
